sensor_id;sensor_type;location;lat;lon;timestamp;temperature;humidity
20278;DHT22;10298;49.716;17.806;2022-07-17T00:00:23;10.30;99.90
20278;DHT22;10298;49.716;17.806;2022-07-17T00:02:50;10.30;99.90
20278;DHT22;10298;49.716;17.806;2022-07-17T00:05:18;10.30;99.90
20278;DHT22;10298;49.716;17.806;2022-07-17T00:07:45;10.30;99.90
20278;DHT22;10298;49.716;17.806;2022-07-17T00:10:13;10.20;99.90
20278;DHT22;10298;49.716;17.806;2022-07-17T00:12:40;10.20;99.90
20278;DHT22;10298;49.716;17.806;2022-07-17T00:15:07;10.10;99.90
20278;DHT22;10298;49.716;17.806;2022-07-17T00:17:35;10.10;99.90
20278;DHT22;10298;49.716;17.806;2022-07-17T00:20:04;10.00;99.90
20278;DHT22;10298;49.716;17.806;2022-07-17T00:22:31;10.00;99.90
20278;DHT22;10298;49.716;17.806;2022-07-17T00:24:58;10.00;99.90
20278;DHT22;10298;49.716;17.806;2022-07-17T00:27:25;9.90;99.90
20278;DHT22;10298;49.716;17.806;2022-07-17T00:29:51;9.90;99.90
20278;DHT22;10298;49.716;17.806;2022-07-17T00:32:18;9.90;99.90
20278;DHT22;10298;49.716;17.806;2022-07-17T00:34:45;9.90;99.90
20278;DHT22;10298;49.716;17.806;2022-07-17T00:37:12;9.90;99.90
20278;DHT22;10298;49.716;17.806;2022-07-17T00:39:39;9.80;99.90
20278;DHT22;10298;49.716;17.806;2022-07-17T00:42:13;9.80;99.90
20278;DHT22;10298;49.716;17.806;2022-07-17T00:44:41;9.70;99.90
20278;DHT22;10298;49.716;17.806;2022-07-17T00:47:13;9.70;99.90
20278;DHT22;10298;49.716;17.806;2022-07-17T00:49:41;9.70;99.90
20278;DHT22;10298;49.716;17.806;2022-07-17T00:52:09;9.80;99.90
20278;DHT22;10298;49.716;17.806;2022-07-17T00:54:38;9.70;99.90
20278;DHT22;10298;49.716;17.806;2022-07-17T00:57:07;9.80;99.90
20278;DHT22;10298;49.716;17.806;2022-07-17T00:59:35;9.80;99.90
20278;DHT22;10298;49.716;17.806;2022-07-17T01:02:07;9.80;99.90
20278;DHT22;10298;49.716;17.806;2022-07-17T01:04:34;9.70;99.90
20278;DHT22;10298;49.716;17.806;2022-07-17T01:07:03;9.60;99.90
20278;DHT22;10298;49.716;17.806;2022-07-17T01:09:31;9.50;99.90
20278;DHT22;10298;49.716;17.806;2022-07-17T01:11:59;9.40;99.90
20278;DHT22;10298;49.716;17.806;2022-07-17T01:14:27;9.30;99.90
20278;DHT22;10298;49.716;17.806;2022-07-17T01:16:55;9.30;99.90
20278;DHT22;10298;49.716;17.806;2022-07-17T01:19:21;9.30;99.90
20278;DHT22;10298;49.716;17.806;2022-07-17T01:21:50;9.30;99.90
20278;DHT22;10298;49.716;17.806;2022-07-17T01:24:17;9.30;99.90
20278;DHT22;10298;49.716;17.806;2022-07-17T01:26:47;9.30;99.90
20278;DHT22;10298;49.716;17.806;2022-07-17T01:29:16;9.30;99.90
20278;DHT22;10298;49.716;17.806;2022-07-17T01:31:43;9.30;99.90
20278;DHT22;10298;49.716;17.806;2022-07-17T01:34:12;9.20;99.90
20278;DHT22;10298;49.716;17.806;2022-07-17T01:36:41;9.20;99.90
20278;DHT22;10298;49.716;17.806;2022-07-17T01:39:09;9.10;99.90
20278;DHT22;10298;49.716;17.806;2022-07-17T01:41:36;9.10;99.90
20278;DHT22;10298;49.716;17.806;2022-07-17T01:44:03;9.10;99.90
20278;DHT22;10298;49.716;17.806;2022-07-17T01:46:30;9.10;99.90
20278;DHT22;10298;49.716;17.806;2022-07-17T01:48:59;9.00;99.90
20278;DHT22;10298;49.716;17.806;2022-07-17T01:51:28;9.00;99.90
20278;DHT22;10298;49.716;17.806;2022-07-17T01:53:58;9.00;99.90
20278;DHT22;10298;49.716;17.806;2022-07-17T01:56:25;9.00;99.90
20278;DHT22;10298;49.716;17.806;2022-07-17T01:58:52;9.00;99.90
20278;DHT22;10298;49.716;17.806;2022-07-17T02:01:19;8.90;99.90
20278;DHT22;10298;49.716;17.806;2022-07-17T02:03:46;8.90;99.90
20278;DHT22;10298;49.716;17.806;2022-07-17T02:06:13;8.90;99.90
20278;DHT22;10298;49.716;17.806;2022-07-17T02:08:40;8.90;99.90
20278;DHT22;10298;49.716;17.806;2022-07-17T02:11:08;8.80;99.90
20278;DHT22;10298;49.716;17.806;2022-07-17T02:13:35;8.70;99.90
20278;DHT22;10298;49.716;17.806;2022-07-17T02:16:02;8.70;99.90
20278;DHT22;10298;49.716;17.806;2022-07-17T02:18:30;8.80;99.90
20278;DHT22;10298;49.716;17.806;2022-07-17T02:20:57;8.80;99.90
20278;DHT22;10298;49.716;17.806;2022-07-17T02:23:24;8.80;99.90
20278;DHT22;10298;49.716;17.806;2022-07-17T02:25:51;8.80;99.90
20278;DHT22;10298;49.716;17.806;2022-07-17T02:28:18;8.80;99.90
20278;DHT22;10298;49.716;17.806;2022-07-17T02:30:45;8.80;99.90
20278;DHT22;10298;49.716;17.806;2022-07-17T02:33:12;8.70;99.90
20278;DHT22;10298;49.716;17.806;2022-07-17T02:35:39;8.70;99.90
20278;DHT22;10298;49.716;17.806;2022-07-17T02:38:06;8.70;99.90
20278;DHT22;10298;49.716;17.806;2022-07-17T02:40:33;8.70;99.90
20278;DHT22;10298;49.716;17.806;2022-07-17T02:43:00;8.70;99.90
20278;DHT22;10298;49.716;17.806;2022-07-17T02:45:27;8.70;99.90
20278;DHT22;10298;49.716;17.806;2022-07-17T02:47:54;8.70;99.90
20278;DHT22;10298;49.716;17.806;2022-07-17T02:50:21;8.60;99.90
20278;DHT22;10298;49.716;17.806;2022-07-17T02:52:48;8.60;99.90
20278;DHT22;10298;49.716;17.806;2022-07-17T02:55:17;8.60;99.90
20278;DHT22;10298;49.716;17.806;2022-07-17T02:57:44;8.70;99.90
20278;DHT22;10298;49.716;17.806;2022-07-17T03:00:15;8.70;99.90
20278;DHT22;10298;49.716;17.806;2022-07-17T03:02:43;8.70;99.90
20278;DHT22;10298;49.716;17.806;2022-07-17T03:05:12;8.70;99.90
20278;DHT22;10298;49.716;17.806;2022-07-17T03:07:39;8.70;99.90
20278;DHT22;10298;49.716;17.806;2022-07-17T03:10:07;8.70;99.90
20278;DHT22;10298;49.716;17.806;2022-07-17T03:12:34;8.70;99.90
20278;DHT22;10298;49.716;17.806;2022-07-17T03:15:01;8.60;99.90
20278;DHT22;10298;49.716;17.806;2022-07-17T03:17:28;8.70;99.90
20278;DHT22;10298;49.716;17.806;2022-07-17T03:19:55;8.70;99.90
20278;DHT22;10298;49.716;17.806;2022-07-17T03:22:22;8.70;99.90
20278;DHT22;10298;49.716;17.806;2022-07-17T03:24:49;8.80;99.90
20278;DHT22;10298;49.716;17.806;2022-07-17T03:27:16;8.80;99.90
20278;DHT22;10298;49.716;17.806;2022-07-17T03:29:44;8.80;99.90
20278;DHT22;10298;49.716;17.806;2022-07-17T03:32:11;8.80;99.90
20278;DHT22;10298;49.716;17.806;2022-07-17T03:34:38;8.80;99.90
20278;DHT22;10298;49.716;17.806;2022-07-17T03:37:05;8.90;99.90
20278;DHT22;10298;49.716;17.806;2022-07-17T03:39:32;8.90;99.90
20278;DHT22;10298;49.716;17.806;2022-07-17T03:41:59;9.00;99.90
20278;DHT22;10298;49.716;17.806;2022-07-17T03:44:26;9.00;99.90
20278;DHT22;10298;49.716;17.806;2022-07-17T03:46:53;9.00;99.90
20278;DHT22;10298;49.716;17.806;2022-07-17T03:49:21;9.10;99.90
20278;DHT22;10298;49.716;17.806;2022-07-17T03:51:48;9.10;99.90
20278;DHT22;10298;49.716;17.806;2022-07-17T03:54:15;9.10;99.90
20278;DHT22;10298;49.716;17.806;2022-07-17T03:56:42;9.20;99.90
20278;DHT22;10298;49.716;17.806;2022-07-17T03:59:09;9.20;99.90
20278;DHT22;10298;49.716;17.806;2022-07-17T04:01:36;9.40;99.90
20278;DHT22;10298;49.716;17.806;2022-07-17T04:04:03;9.40;99.90
20278;DHT22;10298;49.716;17.806;2022-07-17T04:06:30;9.50;99.90
20278;DHT22;10298;49.716;17.806;2022-07-17T04:08:57;9.60;99.90
20278;DHT22;10298;49.716;17.806;2022-07-17T04:11:24;9.70;99.90
20278;DHT22;10298;49.716;17.806;2022-07-17T04:13:51;9.80;99.90
20278;DHT22;10298;49.716;17.806;2022-07-17T04:16:18;9.90;99.90
20278;DHT22;10298;49.716;17.806;2022-07-17T04:18:45;10.00;99.90
20278;DHT22;10298;49.716;17.806;2022-07-17T04:21:11;10.20;99.90
20278;DHT22;10298;49.716;17.806;2022-07-17T04:23:39;10.30;99.90
20278;DHT22;10298;49.716;17.806;2022-07-17T04:26:06;10.40;99.90
20278;DHT22;10298;49.716;17.806;2022-07-17T04:28:37;10.50;99.90
20278;DHT22;10298;49.716;17.806;2022-07-17T04:31:04;10.70;99.90
20278;DHT22;10298;49.716;17.806;2022-07-17T04:33:31;10.80;99.90
20278;DHT22;10298;49.716;17.806;2022-07-17T04:35:58;11.10;99.90
20278;DHT22;10298;49.716;17.806;2022-07-17T04:38:25;11.20;99.90
20278;DHT22;10298;49.716;17.806;2022-07-17T04:40:53;11.40;99.90
20278;DHT22;10298;49.716;17.806;2022-07-17T04:43:20;11.60;99.90
20278;DHT22;10298;49.716;17.806;2022-07-17T04:45:47;11.90;99.90
20278;DHT22;10298;49.716;17.806;2022-07-17T04:48:13;12.10;99.90
20278;DHT22;10298;49.716;17.806;2022-07-17T04:50:40;12.40;99.90
20278;DHT22;10298;49.716;17.806;2022-07-17T04:53:07;12.80;99.90
20278;DHT22;10298;49.716;17.806;2022-07-17T04:55:34;13.00;99.90
20278;DHT22;10298;49.716;17.806;2022-07-17T04:58:01;12.90;99.90
20278;DHT22;10298;49.716;17.806;2022-07-17T05:00:28;13.20;99.90
20278;DHT22;10298;49.716;17.806;2022-07-17T05:02:55;13.50;99.90
20278;DHT22;10298;49.716;17.806;2022-07-17T05:05:22;13.70;99.90
20278;DHT22;10298;49.716;17.806;2022-07-17T05:07:49;13.90;99.90
20278;DHT22;10298;49.716;17.806;2022-07-17T05:10:16;14.10;99.90
20278;DHT22;10298;49.716;17.806;2022-07-17T05:12:43;14.40;99.90
20278;DHT22;10298;49.716;17.806;2022-07-17T05:15:10;14.70;99.90
20278;DHT22;10298;49.716;17.806;2022-07-17T05:17:37;15.80;99.90
20278;DHT22;10298;49.716;17.806;2022-07-17T05:20:05;18.50;99.90
20278;DHT22;10298;49.716;17.806;2022-07-17T05:22:33;19.70;99.90
20278;DHT22;10298;49.716;17.806;2022-07-17T05:24:59;20.00;99.90
20278;DHT22;10298;49.716;17.806;2022-07-17T05:27:27;20.00;99.90
20278;DHT22;10298;49.716;17.806;2022-07-17T05:29:54;20.30;99.90
20278;DHT22;10298;49.716;17.806;2022-07-17T05:32:21;20.20;99.90
20278;DHT22;10298;49.716;17.806;2022-07-17T05:34:48;19.30;99.90
20278;DHT22;10298;49.716;17.806;2022-07-17T05:37:15;18.00;99.90
20278;DHT22;10298;49.716;17.806;2022-07-17T05:39:42;17.10;99.90
20278;DHT22;10298;49.716;17.806;2022-07-17T05:42:09;16.50;99.90
20278;DHT22;10298;49.716;17.806;2022-07-17T05:44:35;16.50;99.90
20278;DHT22;10298;49.716;17.806;2022-07-17T05:47:02;16.70;99.90
20278;DHT22;10298;49.716;17.806;2022-07-17T05:49:29;16.50;99.90
20278;DHT22;10298;49.716;17.806;2022-07-17T05:51:56;16.30;99.90
20278;DHT22;10298;49.716;17.806;2022-07-17T05:54:23;17.00;99.90
20278;DHT22;10298;49.716;17.806;2022-07-17T05:56:50;16.60;99.90
20278;DHT22;10298;49.716;17.806;2022-07-17T05:59:17;17.00;99.90
20278;DHT22;10298;49.716;17.806;2022-07-17T06:01:43;17.00;99.90
20278;DHT22;10298;49.716;17.806;2022-07-17T06:04:11;17.30;99.90
20278;DHT22;10298;49.716;17.806;2022-07-17T06:06:38;17.10;99.90
20278;DHT22;10298;49.716;17.806;2022-07-17T06:09:04;18.20;99.90
20278;DHT22;10298;49.716;17.806;2022-07-17T06:11:31;19.20;99.90
20278;DHT22;10298;49.716;17.806;2022-07-17T06:14:03;20.10;99.90
20278;DHT22;10298;49.716;17.806;2022-07-17T06:16:30;20.20;99.90
20278;DHT22;10298;49.716;17.806;2022-07-17T06:18:57;20.00;99.90
20278;DHT22;10298;49.716;17.806;2022-07-17T06:21:24;19.30;99.90
20278;DHT22;10298;49.716;17.806;2022-07-17T06:23:51;18.60;99.90
20278;DHT22;10298;49.716;17.806;2022-07-17T06:26:18;18.80;99.90
20278;DHT22;10298;49.716;17.806;2022-07-17T06:28:45;18.20;99.90
20278;DHT22;10298;49.716;17.806;2022-07-17T06:31:12;17.90;99.90
20278;DHT22;10298;49.716;17.806;2022-07-17T06:33:39;17.70;99.90
20278;DHT22;10298;49.716;17.806;2022-07-17T06:36:06;18.10;99.90
20278;DHT22;10298;49.716;17.806;2022-07-17T06:38:33;18.30;99.90
20278;DHT22;10298;49.716;17.806;2022-07-17T06:41:01;18.40;99.90
20278;DHT22;10298;49.716;17.806;2022-07-17T06:43:28;19.10;99.90
20278;DHT22;10298;49.716;17.806;2022-07-17T06:45:55;19.40;99.90
20278;DHT22;10298;49.716;17.806;2022-07-17T06:48:23;19.20;99.90
20278;DHT22;10298;49.716;17.806;2022-07-17T06:50:50;19.20;99.90
20278;DHT22;10298;49.716;17.806;2022-07-17T06:53:17;19.30;99.90
20278;DHT22;10298;49.716;17.806;2022-07-17T06:55:43;19.20;99.90
20278;DHT22;10298;49.716;17.806;2022-07-17T06:58:10;19.00;99.90
20278;DHT22;10298;49.716;17.806;2022-07-17T07:00:38;19.20;99.90
20278;DHT22;10298;49.716;17.806;2022-07-17T07:03:05;19.30;99.90
20278;DHT22;10298;49.716;17.806;2022-07-17T07:05:33;19.10;99.90
20278;DHT22;10298;49.716;17.806;2022-07-17T07:08:00;19.10;99.90
20278;DHT22;10298;49.716;17.806;2022-07-17T07:10:27;19.20;99.90
20278;DHT22;10298;49.716;17.806;2022-07-17T07:12:54;19.40;99.90
20278;DHT22;10298;49.716;17.806;2022-07-17T07:15:22;19.40;99.90
20278;DHT22;10298;49.716;17.806;2022-07-17T07:17:50;19.80;99.90
20278;DHT22;10298;49.716;17.806;2022-07-17T07:20:17;20.60;99.90
20278;DHT22;10298;49.716;17.806;2022-07-17T07:22:44;20.30;99.90
20278;DHT22;10298;49.716;17.806;2022-07-17T07:25:11;20.00;99.90
20278;DHT22;10298;49.716;17.806;2022-07-17T07:27:37;20.30;99.90
20278;DHT22;10298;49.716;17.806;2022-07-17T07:30:05;21.20;99.90
20278;DHT22;10298;49.716;17.806;2022-07-17T07:32:37;20.40;99.90
20278;DHT22;10298;49.716;17.806;2022-07-17T07:35:05;19.80;99.90
20278;DHT22;10298;49.716;17.806;2022-07-17T07:37:33;20.60;99.90
20278;DHT22;10298;49.716;17.806;2022-07-17T07:40:00;19.60;99.90
20278;DHT22;10298;49.716;17.806;2022-07-17T07:42:27;20.60;99.90
20278;DHT22;10298;49.716;17.806;2022-07-17T07:44:54;20.70;99.90
20278;DHT22;10298;49.716;17.806;2022-07-17T07:47:21;20.80;98.70
20278;DHT22;10298;49.716;17.806;2022-07-17T07:49:47;21.00;99.90
20278;DHT22;10298;49.716;17.806;2022-07-17T07:52:14;21.00;99.90
20278;DHT22;10298;49.716;17.806;2022-07-17T07:54:41;21.90;99.90
20278;DHT22;10298;49.716;17.806;2022-07-17T07:57:08;21.50;97.90
20278;DHT22;10298;49.716;17.806;2022-07-17T07:59:36;21.30;99.90
20278;DHT22;10298;49.716;17.806;2022-07-17T08:02:03;21.10;99.90
20278;DHT22;10298;49.716;17.806;2022-07-17T08:04:30;21.50;99.90
20278;DHT22;10298;49.716;17.806;2022-07-17T08:06:57;21.70;99.70
20278;DHT22;10298;49.716;17.806;2022-07-17T08:09:24;22.30;99.20
20278;DHT22;10298;49.716;17.806;2022-07-17T08:11:51;22.60;97.90
20278;DHT22;10298;49.716;17.806;2022-07-17T08:14:17;23.10;99.90
20278;DHT22;10298;49.716;17.806;2022-07-17T08:16:44;22.70;99.10
20278;DHT22;10298;49.716;17.806;2022-07-17T08:19:11;22.00;96.60
20278;DHT22;10298;49.716;17.806;2022-07-17T08:21:38;20.70;95.90
20278;DHT22;10298;49.716;17.806;2022-07-17T08:24:06;19.30;97.70
20278;DHT22;10298;49.716;17.806;2022-07-17T08:26:33;19.20;99.90
20278;DHT22;10298;49.716;17.806;2022-07-17T08:29:00;18.80;99.90
20278;DHT22;10298;49.716;17.806;2022-07-17T08:31:27;19.90;99.90
20278;DHT22;10298;49.716;17.806;2022-07-17T08:33:55;20.30;99.90
20278;DHT22;10298;49.716;17.806;2022-07-17T08:36:21;20.90;98.90
20278;DHT22;10298;49.716;17.806;2022-07-17T08:38:48;20.90;98.50
20278;DHT22;10298;49.716;17.806;2022-07-17T08:41:16;21.00;99.90
20278;DHT22;10298;49.716;17.806;2022-07-17T08:43:44;21.00;98.40
20278;DHT22;10298;49.716;17.806;2022-07-17T08:46:12;20.60;97.40
20278;DHT22;10298;49.716;17.806;2022-07-17T08:48:40;21.00;97.60
20278;DHT22;10298;49.716;17.806;2022-07-17T08:51:09;21.70;99.90
20278;DHT22;10298;49.716;17.806;2022-07-17T08:53:37;21.60;96.30
20278;DHT22;10298;49.716;17.806;2022-07-17T08:56:04;21.90;94.00
20278;DHT22;10298;49.716;17.806;2022-07-17T08:58:31;22.00;96.90
20278;DHT22;10298;49.716;17.806;2022-07-17T09:00:58;22.40;92.70
20278;DHT22;10298;49.716;17.806;2022-07-17T09:03:25;21.90;91.00
20278;DHT22;10298;49.716;17.806;2022-07-17T09:05:52;20.80;94.60
20278;DHT22;10298;49.716;17.806;2022-07-17T09:08:22;21.60;94.60
20278;DHT22;10298;49.716;17.806;2022-07-17T09:10:52;21.40;94.50
20278;DHT22;10298;49.716;17.806;2022-07-17T09:13:29;21.10;96.80
20278;DHT22;10298;49.716;17.806;2022-07-17T09:16:08;20.10;95.10
20278;DHT22;10298;49.716;17.806;2022-07-17T09:18:44;19.40;95.90
20278;DHT22;10298;49.716;17.806;2022-07-17T09:21:20;19.30;98.20
20278;DHT22;10298;49.716;17.806;2022-07-17T09:26:28;19.80;97.10
20278;DHT22;10298;49.716;17.806;2022-07-17T09:28:56;19.80;97.40
20278;DHT22;10298;49.716;17.806;2022-07-17T09:31:29;20.10;95.40
20278;DHT22;10298;49.716;17.806;2022-07-17T09:33:57;19.90;96.50
20278;DHT22;10298;49.716;17.806;2022-07-17T09:36:25;19.30;95.80
20278;DHT22;10298;49.716;17.806;2022-07-17T09:38:54;20.10;97.20
20278;DHT22;10298;49.716;17.806;2022-07-17T09:41:23;20.30;97.50
20278;DHT22;10298;49.716;17.806;2022-07-17T09:43:51;20.70;92.90
20278;DHT22;10298;49.716;17.806;2022-07-17T09:46:26;20.40;93.10
20278;DHT22;10298;49.716;17.806;2022-07-17T09:48:59;19.50;95.10
20278;DHT22;10298;49.716;17.806;2022-07-17T09:51:33;19.80;97.20
20278;DHT22;10298;49.716;17.806;2022-07-17T09:54:02;19.80;97.20
20278;DHT22;10298;49.716;17.806;2022-07-17T09:56:32;20.40;98.50
20278;DHT22;10298;49.716;17.806;2022-07-17T09:59:06;20.70;96.20
20278;DHT22;10298;49.716;17.806;2022-07-17T10:01:34;19.80;95.30
20278;DHT22;10298;49.716;17.806;2022-07-17T10:04:03;21.00;95.00
20278;DHT22;10298;49.716;17.806;2022-07-17T10:06:31;21.00;97.20
20278;DHT22;10298;49.716;17.806;2022-07-17T10:08:59;20.20;94.90
20278;DHT22;10298;49.716;17.806;2022-07-17T10:11:29;19.90;95.90
20278;DHT22;10298;49.716;17.806;2022-07-17T10:14:05;19.60;94.60
20278;DHT22;10298;49.716;17.806;2022-07-17T10:16:34;20.00;95.80
20278;DHT22;10298;49.716;17.806;2022-07-17T10:19:15;19.50;94.40
20278;DHT22;10298;49.716;17.806;2022-07-17T10:21:52;19.60;93.90
20278;DHT22;10298;49.716;17.806;2022-07-17T10:24:19;19.70;94.90
20278;DHT22;10298;49.716;17.806;2022-07-17T10:26:46;20.10;99.90
20278;DHT22;10298;49.716;17.806;2022-07-17T10:29:37;20.30;98.00
20278;DHT22;10298;49.716;17.806;2022-07-17T10:32:17;20.00;97.30
20278;DHT22;10298;49.716;17.806;2022-07-17T10:34:45;20.70;97.20
20278;DHT22;10298;49.716;17.806;2022-07-17T10:39:56;21.30;99.90
20278;DHT22;10298;49.716;17.806;2022-07-17T10:43:01;21.60;99.80
20278;DHT22;10298;49.716;17.806;2022-07-17T10:47:59;21.20;96.70
20278;DHT22;10298;49.716;17.806;2022-07-17T10:50:38;20.50;94.60
20278;DHT22;10298;49.716;17.806;2022-07-17T10:53:17;20.50;92.60
20278;DHT22;10298;49.716;17.806;2022-07-17T11:01:17;20.60;93.50
20278;DHT22;10298;49.716;17.806;2022-07-17T11:03:46;20.40;91.80
20278;DHT22;10298;49.716;17.806;2022-07-17T11:06:58;20.60;94.30
20278;DHT22;10298;49.716;17.806;2022-07-17T11:09:08;21.00;97.90
20278;DHT22;10298;49.716;17.806;2022-07-17T11:11:49;21.00;93.30
20278;DHT22;10298;49.716;17.806;2022-07-17T11:14:25;20.90;92.30
20278;DHT22;10298;49.716;17.806;2022-07-17T11:17:00;20.70;92.20
20278;DHT22;10298;49.716;17.806;2022-07-17T11:21:55;21.50;92.90
20278;DHT22;10298;49.716;17.806;2022-07-17T11:24:24;21.80;93.00
20278;DHT22;10298;49.716;17.806;2022-07-17T11:26:52;21.90;91.30
20278;DHT22;10298;49.716;17.806;2022-07-17T11:29:20;21.10;92.20
20278;DHT22;10298;49.716;17.806;2022-07-17T11:31:55;21.80;93.80
20278;DHT22;10298;49.716;17.806;2022-07-17T11:34:25;22.30;94.00
20278;DHT22;10298;49.716;17.806;2022-07-17T11:37:02;22.10;92.40
20278;DHT22;10298;49.716;17.806;2022-07-17T11:39:43;22.60;95.20
20278;DHT22;10298;49.716;17.806;2022-07-17T11:42:22;22.80;93.50
20278;DHT22;10298;49.716;17.806;2022-07-17T11:44:51;21.70;94.60
20278;DHT22;10298;49.716;17.806;2022-07-17T11:47:24;22.00;92.60
20278;DHT22;10298;49.716;17.806;2022-07-17T11:49:51;21.40;90.30
20278;DHT22;10298;49.716;17.806;2022-07-17T11:52:20;21.50;92.20
20278;DHT22;10298;49.716;17.806;2022-07-17T11:54:49;21.40;90.30
20278;DHT22;10298;49.716;17.806;2022-07-17T11:57:17;21.50;95.30
20278;DHT22;10298;49.716;17.806;2022-07-17T11:59:45;21.40;91.90
20278;DHT22;10298;49.716;17.806;2022-07-17T12:02:18;21.30;89.70
20278;DHT22;10298;49.716;17.806;2022-07-17T12:07:20;21.70;91.30
20278;DHT22;10298;49.716;17.806;2022-07-17T12:09:47;21.40;90.20
20278;DHT22;10298;49.716;17.806;2022-07-17T12:12:19;21.60;93.70
20278;DHT22;10298;49.716;17.806;2022-07-17T12:14:58;22.00;94.60
20278;DHT22;10298;49.716;17.806;2022-07-17T12:17:40;22.70;95.20
20278;DHT22;10298;49.716;17.806;2022-07-17T12:20:08;22.20;88.50
20278;DHT22;10298;49.716;17.806;2022-07-17T12:22:46;22.40;92.80
20278;DHT22;10298;49.716;17.806;2022-07-17T12:25:23;21.70;86.30
20278;DHT22;10298;49.716;17.806;2022-07-17T12:27:50;21.10;91.30
20278;DHT22;10298;49.716;17.806;2022-07-17T12:30:18;21.50;91.80
20278;DHT22;10298;49.716;17.806;2022-07-17T12:32:45;21.40;91.50
20278;DHT22;10298;49.716;17.806;2022-07-17T12:35:14;21.30;91.40
20278;DHT22;10298;49.716;17.806;2022-07-17T12:37:46;21.70;91.50
20278;DHT22;10298;49.716;17.806;2022-07-17T12:40:13;22.20;93.30
20278;DHT22;10298;49.716;17.806;2022-07-17T12:42:43;22.20;92.50
20278;DHT22;10298;49.716;17.806;2022-07-17T12:45:10;22.00;90.40
20278;DHT22;10298;49.716;17.806;2022-07-17T12:47:38;21.90;90.10
20278;DHT22;10298;49.716;17.806;2022-07-17T12:50:05;21.80;90.00
20278;DHT22;10298;49.716;17.806;2022-07-17T12:52:34;22.00;90.00
20278;DHT22;10298;49.716;17.806;2022-07-17T12:55:01;21.60;88.40
20278;DHT22;10298;49.716;17.806;2022-07-17T12:57:28;21.70;92.40
20278;DHT22;10298;49.716;17.806;2022-07-17T12:59:55;21.80;90.20
20278;DHT22;10298;49.716;17.806;2022-07-17T13:02:22;21.60;89.50
20278;DHT22;10298;49.716;17.806;2022-07-17T13:04:50;21.50;90.60
20278;DHT22;10298;49.716;17.806;2022-07-17T13:07:17;21.10;89.10
20278;DHT22;10298;49.716;17.806;2022-07-17T13:09:44;21.00;89.00
20278;DHT22;10298;49.716;17.806;2022-07-17T13:12:11;21.00;90.80
20278;DHT22;10298;49.716;17.806;2022-07-17T13:14:38;21.10;91.00
20278;DHT22;10298;49.716;17.806;2022-07-17T13:17:05;20.70;87.70
20278;DHT22;10298;49.716;17.806;2022-07-17T13:19:32;20.70;90.30
20278;DHT22;10298;49.716;17.806;2022-07-17T13:22:00;20.70;90.70
20278;DHT22;10298;49.716;17.806;2022-07-17T13:24:29;20.40;89.80
20278;DHT22;10298;49.716;17.806;2022-07-17T13:26:56;20.50;90.10
20278;DHT22;10298;49.716;17.806;2022-07-17T13:29:25;20.50;91.30
20278;DHT22;10298;49.716;17.806;2022-07-17T13:31:55;20.60;91.50
20278;DHT22;10298;49.716;17.806;2022-07-17T13:34:23;20.70;92.10
20278;DHT22;10298;49.716;17.806;2022-07-17T13:36:50;20.80;93.50
20278;DHT22;10298;49.716;17.806;2022-07-17T13:39:17;20.90;93.60
20278;DHT22;10298;49.716;17.806;2022-07-17T13:41:44;20.90;93.80
20278;DHT22;10298;49.716;17.806;2022-07-17T13:44:11;20.80;92.40
20278;DHT22;10298;49.716;17.806;2022-07-17T13:46:38;20.80;91.70
20278;DHT22;10298;49.716;17.806;2022-07-17T13:49:05;20.60;92.00
20278;DHT22;10298;49.716;17.806;2022-07-17T13:51:33;20.60;91.70
20278;DHT22;10298;49.716;17.806;2022-07-17T13:54:00;20.60;91.60
20278;DHT22;10298;49.716;17.806;2022-07-17T13:56:27;20.40;92.50
20278;DHT22;10298;49.716;17.806;2022-07-17T13:58:54;20.50;92.10
20278;DHT22;10298;49.716;17.806;2022-07-17T14:01:21;20.30;91.30
20278;DHT22;10298;49.716;17.806;2022-07-17T14:03:49;20.30;94.10
20278;DHT22;10298;49.716;17.806;2022-07-17T14:06:16;20.20;93.00
20278;DHT22;10298;49.716;17.806;2022-07-17T14:08:44;20.20;93.60
20278;DHT22;10298;49.716;17.806;2022-07-17T14:11:11;20.00;93.30
20278;DHT22;10298;49.716;17.806;2022-07-17T14:13:38;20.10;93.80
20278;DHT22;10298;49.716;17.806;2022-07-17T14:16:12;20.10;93.30
20278;DHT22;10298;49.716;17.806;2022-07-17T14:18:39;20.10;93.10
20278;DHT22;10298;49.716;17.806;2022-07-17T14:21:28;20.10;92.50
20278;DHT22;10298;49.716;17.806;2022-07-17T14:23:56;20.00;92.20
20278;DHT22;10298;49.716;17.806;2022-07-17T14:26:23;19.90;95.80
20278;DHT22;10298;49.716;17.806;2022-07-17T14:28:50;20.00;94.30
20278;DHT22;10298;49.716;17.806;2022-07-17T14:31:17;20.10;93.40
20278;DHT22;10298;49.716;17.806;2022-07-17T14:33:44;20.30;95.00
20278;DHT22;10298;49.716;17.806;2022-07-17T14:36:11;20.30;93.80
20278;DHT22;10298;49.716;17.806;2022-07-17T14:38:38;20.40;95.70
20278;DHT22;10298;49.716;17.806;2022-07-17T14:41:06;20.40;97.00
20278;DHT22;10298;49.716;17.806;2022-07-17T14:43:33;20.50;97.00
20278;DHT22;10298;49.716;17.806;2022-07-17T14:46:08;20.60;94.50
20278;DHT22;10298;49.716;17.806;2022-07-17T14:48:35;20.60;93.80
20278;DHT22;10298;49.716;17.806;2022-07-17T14:51:04;20.60;93.60
20278;DHT22;10298;49.716;17.806;2022-07-17T14:53:32;20.50;93.10
20278;DHT22;10298;49.716;17.806;2022-07-17T14:55:59;20.30;92.20
20278;DHT22;10298;49.716;17.806;2022-07-17T14:58:26;20.10;92.30
20278;DHT22;10298;49.716;17.806;2022-07-17T15:00:54;20.10;91.60
20278;DHT22;10298;49.716;17.806;2022-07-17T15:03:27;20.20;93.80
20278;DHT22;10298;49.716;17.806;2022-07-17T15:05:55;20.20;93.20
20278;DHT22;10298;49.716;17.806;2022-07-17T15:08:23;20.30;93.80
20278;DHT22;10298;49.716;17.806;2022-07-17T15:10:50;20.10;95.90
20278;DHT22;10298;49.716;17.806;2022-07-17T15:13:17;20.10;95.70
20278;DHT22;10298;49.716;17.806;2022-07-17T15:15:44;20.10;94.20
20278;DHT22;10298;49.716;17.806;2022-07-17T15:18:12;20.20;92.90
20278;DHT22;10298;49.716;17.806;2022-07-17T15:20:39;20.30;94.80
20278;DHT22;10298;49.716;17.806;2022-07-17T15:23:09;20.30;97.90
20278;DHT22;10298;49.716;17.806;2022-07-17T15:25:36;20.30;97.90
20278;DHT22;10298;49.716;17.806;2022-07-17T15:28:03;20.10;98.50
20278;DHT22;10298;49.716;17.806;2022-07-17T15:30:30;20.30;96.70
20278;DHT22;10298;49.716;17.806;2022-07-17T15:32:57;20.40;96.90
20278;DHT22;10298;49.716;17.806;2022-07-17T15:35:24;20.50;95.60
20278;DHT22;10298;49.716;17.806;2022-07-17T15:37:53;20.40;94.70
20278;DHT22;10298;49.716;17.806;2022-07-17T15:40:21;20.40;95.40
20278;DHT22;10298;49.716;17.806;2022-07-17T15:42:49;20.30;96.20
20278;DHT22;10298;49.716;17.806;2022-07-17T15:45:17;20.10;97.10